sensor_id;sensor_type;location;lat;lon;timestamp;temperature;humidity
20068;DHT22;10194;50.824;7.134;2023-04-15T00:01:22;4.80;99.90
20068;DHT22;10194;50.824;7.134;2023-04-15T00:03:51;4.80;99.90
20068;DHT22;10194;50.824;7.134;2023-04-15T00:06:18;4.70;99.90
20068;DHT22;10194;50.824;7.134;2023-04-15T00:08:44;4.70;99.90
20068;DHT22;10194;50.824;7.134;2023-04-15T00:11:11;4.70;99.90
20068;DHT22;10194;50.824;7.134;2023-04-15T00:13:37;4.60;99.90
20068;DHT22;10194;50.824;7.134;2023-04-15T00:16:04;4.50;99.90
20068;DHT22;10194;50.824;7.134;2023-04-15T00:18:31;4.50;99.90
20068;DHT22;10194;50.824;7.134;2023-04-15T00:20:57;4.50;99.90
20068;DHT22;10194;50.824;7.134;2023-04-15T00:23:23;4.50;99.90
20068;DHT22;10194;50.824;7.134;2023-04-15T00:25:49;4.50;99.90
20068;DHT22;10194;50.824;7.134;2023-04-15T00:28:16;4.40;99.90
20068;DHT22;10194;50.824;7.134;2023-04-15T00:30:42;4.30;99.90
20068;DHT22;10194;50.824;7.134;2023-04-15T00:33:08;4.30;99.90
20068;DHT22;10194;50.824;7.134;2023-04-15T00:35:35;4.30;99.90
20068;DHT22;10194;50.824;7.134;2023-04-15T00:38:05;4.30;99.90
20068;DHT22;10194;50.824;7.134;2023-04-15T00:40:34;4.30;99.90
20068;DHT22;10194;50.824;7.134;2023-04-15T00:43:01;4.20;99.90
20068;DHT22;10194;50.824;7.134;2023-04-15T00:45:27;4.40;99.90
20068;DHT22;10194;50.824;7.134;2023-04-15T00:47:53;4.40;99.90
20068;DHT22;10194;50.824;7.134;2023-04-15T00:50:20;4.50;99.90
20068;DHT22;10194;50.824;7.134;2023-04-15T00:52:45;4.50;99.90
20068;DHT22;10194;50.824;7.134;2023-04-15T00:55:12;4.40;99.90
20068;DHT22;10194;50.824;7.134;2023-04-15T00:57:38;4.30;99.90
20068;DHT22;10194;50.824;7.134;2023-04-15T01:00:05;4.30;99.90
20068;DHT22;10194;50.824;7.134;2023-04-15T01:02:36;4.30;99.90
20068;DHT22;10194;50.824;7.134;2023-04-15T01:05:02;4.40;99.90
20068;DHT22;10194;50.824;7.134;2023-04-15T01:07:29;4.30;99.90
20068;DHT22;10194;50.824;7.134;2023-04-15T01:09:55;4.20;99.90
20068;DHT22;10194;50.824;7.134;2023-04-15T01:12:22;4.10;99.90
20068;DHT22;10194;50.824;7.134;2023-04-15T01:14:49;4.00;99.90
20068;DHT22;10194;50.824;7.134;2023-04-15T01:17:16;3.90;99.90
20068;DHT22;10194;50.824;7.134;2023-04-15T01:19:42;3.90;99.90
20068;DHT22;10194;50.824;7.134;2023-04-15T01:22:08;3.80;99.90
20068;DHT22;10194;50.824;7.134;2023-04-15T01:24:34;3.80;99.90
20068;DHT22;10194;50.824;7.134;2023-04-15T01:27:02;3.80;99.90
20068;DHT22;10194;50.824;7.134;2023-04-15T01:29:30;3.80;99.90
20068;DHT22;10194;50.824;7.134;2023-04-15T01:31:57;3.70;99.90
20068;DHT22;10194;50.824;7.134;2023-04-15T01:34:23;3.60;99.90
20068;DHT22;10194;50.824;7.134;2023-04-15T01:36:49;3.60;99.90
20068;DHT22;10194;50.824;7.134;2023-04-15T01:39:15;3.60;99.90
20068;DHT22;10194;50.824;7.134;2023-04-15T01:41:41;3.60;99.90
20068;DHT22;10194;50.824;7.134;2023-04-15T01:44:07;3.60;99.90
20068;DHT22;10194;50.824;7.134;2023-04-15T01:46:34;3.60;99.90
20068;DHT22;10194;50.824;7.134;2023-04-15T01:49:01;3.60;99.90
20068;DHT22;10194;50.824;7.134;2023-04-15T01:51:27;3.60;99.90
20068;DHT22;10194;50.824;7.134;2023-04-15T01:53:53;3.60;99.90
20068;DHT22;10194;50.824;7.134;2023-04-15T01:56:21;3.60;99.90
20068;DHT22;10194;50.824;7.134;2023-04-15T01:58:48;3.60;99.90
20068;DHT22;10194;50.824;7.134;2023-04-15T02:01:14;3.60;99.90
20068;DHT22;10194;50.824;7.134;2023-04-15T02:03:41;3.50;99.90
20068;DHT22;10194;50.824;7.134;2023-04-15T02:06:07;3.60;99.90
20068;DHT22;10194;50.824;7.134;2023-04-15T02:08:32;3.70;99.90
20068;DHT22;10194;50.824;7.134;2023-04-15T02:10:58;3.80;99.90
20068;DHT22;10194;50.824;7.134;2023-04-15T02:13:25;3.90;99.90
20068;DHT22;10194;50.824;7.134;2023-04-15T02:15:51;3.90;99.90
20068;DHT22;10194;50.824;7.134;2023-04-15T02:18:19;3.90;99.90
20068;DHT22;10194;50.824;7.134;2023-04-15T02:20:45;3.90;99.90
20068;DHT22;10194;50.824;7.134;2023-04-15T02:23:11;3.80;99.90
20068;DHT22;10194;50.824;7.134;2023-04-15T02:25:37;3.80;99.90
20068;DHT22;10194;50.824;7.134;2023-04-15T02:28:06;3.80;99.90
20068;DHT22;10194;50.824;7.134;2023-04-15T02:30:32;3.70;99.90
20068;DHT22;10194;50.824;7.134;2023-04-15T02:32:59;3.60;99.90
20068;DHT22;10194;50.824;7.134;2023-04-15T02:35:25;3.60;99.90
20068;DHT22;10194;50.824;7.134;2023-04-15T02:37:52;3.50;99.90
20068;DHT22;10194;50.824;7.134;2023-04-15T02:40:17;3.50;99.90
20068;DHT22;10194;50.824;7.134;2023-04-15T02:42:43;3.50;99.90
20068;DHT22;10194;50.824;7.134;2023-04-15T02:45:10;3.40;99.90
20068;DHT22;10194;50.824;7.134;2023-04-15T02:47:38;3.30;99.90
20068;DHT22;10194;50.824;7.134;2023-04-15T02:50:08;3.50;99.90
20068;DHT22;10194;50.824;7.134;2023-04-15T02:52:39;3.50;99.90
20068;DHT22;10194;50.824;7.134;2023-04-15T02:55:06;3.50;99.90
20068;DHT22;10194;50.824;7.134;2023-04-15T02:57:32;3.60;99.90
20068;DHT22;10194;50.824;7.134;2023-04-15T03:00:00;3.70;99.90
20068;DHT22;10194;50.824;7.134;2023-04-15T03:02:26;3.70;99.90
20068;DHT22;10194;50.824;7.134;2023-04-15T03:04:53;3.50;99.90
20068;DHT22;10194;50.824;7.134;2023-04-15T03:07:19;3.50;99.90
20068;DHT22;10194;50.824;7.134;2023-04-15T03:09:45;3.40;99.90
20068;DHT22;10194;50.824;7.134;2023-04-15T03:12:12;3.40;99.90
20068;DHT22;10194;50.824;7.134;2023-04-15T03:14:37;3.40;99.90
20068;DHT22;10194;50.824;7.134;2023-04-15T03:17:03;3.40;99.90
20068;DHT22;10194;50.824;7.134;2023-04-15T03:19:29;3.40;99.90
20068;DHT22;10194;50.824;7.134;2023-04-15T03:21:55;3.40;99.90
20068;DHT22;10194;50.824;7.134;2023-04-15T03:24:20;3.30;99.90
20068;DHT22;10194;50.824;7.134;2023-04-15T03:26:46;3.20;99.90
20068;DHT22;10194;50.824;7.134;2023-04-15T03:29:12;3.20;99.90
20068;DHT22;10194;50.824;7.134;2023-04-15T03:31:37;3.20;99.90
20068;DHT22;10194;50.824;7.134;2023-04-15T03:34:03;3.10;99.90
20068;DHT22;10194;50.824;7.134;2023-04-15T03:36:30;3.10;99.90
20068;DHT22;10194;50.824;7.134;2023-04-15T03:38:59;3.00;99.90
20068;DHT22;10194;50.824;7.134;2023-04-15T03:41:27;3.00;99.90
20068;DHT22;10194;50.824;7.134;2023-04-15T03:43:53;3.00;99.90
20068;DHT22;10194;50.824;7.134;2023-04-15T03:46:19;3.00;99.90
20068;DHT22;10194;50.824;7.134;2023-04-15T03:48:45;2.90;99.90
20068;DHT22;10194;50.824;7.134;2023-04-15T03:51:11;2.90;99.90
20068;DHT22;10194;50.824;7.134;2023-04-15T03:53:37;2.90;99.90
20068;DHT22;10194;50.824;7.134;2023-04-15T03:56:03;2.90;99.90
20068;DHT22;10194;50.824;7.134;2023-04-15T03:58:29;2.80;99.90
20068;DHT22;10194;50.824;7.134;2023-04-15T04:00:55;2.80;99.90
20068;DHT22;10194;50.824;7.134;2023-04-15T04:03:20;2.80;99.90
20068;DHT22;10194;50.824;7.134;2023-04-15T04:05:46;2.80;99.90
20068;DHT22;10194;50.824;7.134;2023-04-15T04:08:12;2.80;99.90
20068;DHT22;10194;50.824;7.134;2023-04-15T04:10:38;2.80;99.90
20068;DHT22;10194;50.824;7.134;2023-04-15T04:13:04;2.80;99.90
20068;DHT22;10194;50.824;7.134;2023-04-15T04:15:30;2.70;99.90
20068;DHT22;10194;50.824;7.134;2023-04-15T04:17:56;2.70;99.90
20068;DHT22;10194;50.824;7.134;2023-04-15T04:20:22;2.70;99.90
20068;DHT22;10194;50.824;7.134;2023-04-15T04:22:49;2.60;99.90
20068;DHT22;10194;50.824;7.134;2023-04-15T04:25:15;2.60;99.90
20068;DHT22;10194;50.824;7.134;2023-04-15T04:27:40;2.60;99.90
20068;DHT22;10194;50.824;7.134;2023-04-15T04:30:07;2.50;99.90
20068;DHT22;10194;50.824;7.134;2023-04-15T04:32:33;2.50;99.90
20068;DHT22;10194;50.824;7.134;2023-04-15T04:34:58;2.40;99.90
20068;DHT22;10194;50.824;7.134;2023-04-15T04:37:24;2.50;99.90
20068;DHT22;10194;50.824;7.134;2023-04-15T04:39:50;2.40;99.90
20068;DHT22;10194;50.824;7.134;2023-04-15T04:42:16;2.50;99.90
20068;DHT22;10194;50.824;7.134;2023-04-15T04:44:41;2.40;99.90
20068;DHT22;10194;50.824;7.134;2023-04-15T04:47:07;2.50;99.90
20068;DHT22;10194;50.824;7.134;2023-04-15T04:49:33;2.60;99.90
20068;DHT22;10194;50.824;7.134;2023-04-15T04:51:59;2.70;99.90
20068;DHT22;10194;50.824;7.134;2023-04-15T04:54:24;2.80;99.90
20068;DHT22;10194;50.824;7.134;2023-04-15T04:56:52;2.80;99.90
20068;DHT22;10194;50.824;7.134;2023-04-15T04:59:17;2.70;99.90
20068;DHT22;10194;50.824;7.134;2023-04-15T05:01:43;2.60;99.90
20068;DHT22;10194;50.824;7.134;2023-04-15T05:04:09;2.60;99.90
20068;DHT22;10194;50.824;7.134;2023-04-15T05:06:35;2.70;99.90
20068;DHT22;10194;50.824;7.134;2023-04-15T05:09:02;2.70;99.90
20068;DHT22;10194;50.824;7.134;2023-04-15T05:11:28;2.80;99.90
20068;DHT22;10194;50.824;7.134;2023-04-15T05:13:54;2.70;99.90
20068;DHT22;10194;50.824;7.134;2023-04-15T05:16:20;2.70;99.90
20068;DHT22;10194;50.824;7.134;2023-04-15T05:18:46;2.80;99.90
20068;DHT22;10194;50.824;7.134;2023-04-15T05:21:12;2.70;99.90
20068;DHT22;10194;50.824;7.134;2023-04-15T05:23:38;2.80;99.90
20068;DHT22;10194;50.824;7.134;2023-04-15T05:26:04;2.80;99.90
20068;DHT22;10194;50.824;7.134;2023-04-15T05:28:30;2.90;99.90
20068;DHT22;10194;50.824;7.134;2023-04-15T05:30:56;3.00;99.90
20068;DHT22;10194;50.824;7.134;2023-04-15T05:33:22;3.10;99.90
20068;DHT22;10194;50.824;7.134;2023-04-15T05:35:47;3.20;99.90
20068;DHT22;10194;50.824;7.134;2023-04-15T05:38:13;3.40;99.90
20068;DHT22;10194;50.824;7.134;2023-04-15T05:40:39;3.50;99.90
20068;DHT22;10194;50.824;7.134;2023-04-15T05:43:05;3.70;99.90
20068;DHT22;10194;50.824;7.134;2023-04-15T05:45:31;3.90;99.90
20068;DHT22;10194;50.824;7.134;2023-04-15T05:47:57;4.20;99.90
20068;DHT22;10194;50.824;7.134;2023-04-15T05:50:22;4.40;99.90
20068;DHT22;10194;50.824;7.134;2023-04-15T05:52:48;4.70;99.90
20068;DHT22;10194;50.824;7.134;2023-04-15T05:55:14;5.00;99.90
20068;DHT22;10194;50.824;7.134;2023-04-15T05:57:40;5.30;99.90
20068;DHT22;10194;50.824;7.134;2023-04-15T06:00:06;5.60;99.90
20068;DHT22;10194;50.824;7.134;2023-04-15T06:02:32;5.80;99.90
20068;DHT22;10194;50.824;7.134;2023-04-15T06:04:58;6.00;99.90
20068;DHT22;10194;50.824;7.134;2023-04-15T06:07:25;6.30;99.90
20068;DHT22;10194;50.824;7.134;2023-04-15T06:09:50;6.50;99.90
20068;DHT22;10194;50.824;7.134;2023-04-15T06:12:16;6.80;99.90
20068;DHT22;10194;50.824;7.134;2023-04-15T06:14:42;7.30;99.90
20068;DHT22;10194;50.824;7.134;2023-04-15T06:17:08;7.70;99.90
20068;DHT22;10194;50.824;7.134;2023-04-15T06:19:34;8.10;99.90
20068;DHT22;10194;50.824;7.134;2023-04-15T06:22:01;8.50;99.90
20068;DHT22;10194;50.824;7.134;2023-04-15T06:24:28;8.70;99.90
20068;DHT22;10194;50.824;7.134;2023-04-15T06:26:53;9.10;99.90
20068;DHT22;10194;50.824;7.134;2023-04-15T06:29:19;9.60;99.90
20068;DHT22;10194;50.824;7.134;2023-04-15T06:31:47;10.10;99.90
20068;DHT22;10194;50.824;7.134;2023-04-15T06:34:13;10.60;99.90
20068;DHT22;10194;50.824;7.134;2023-04-15T06:36:39;11.20;99.90
20068;DHT22;10194;50.824;7.134;2023-04-15T06:39:05;11.70;99.90
20068;DHT22;10194;50.824;7.134;2023-04-15T06:41:30;12.00;99.90
20068;DHT22;10194;50.824;7.134;2023-04-15T06:43:56;12.10;99.90
20068;DHT22;10194;50.824;7.134;2023-04-15T06:46:22;12.30;99.90
20068;DHT22;10194;50.824;7.134;2023-04-15T06:48:48;12.20;99.90
20068;DHT22;10194;50.824;7.134;2023-04-15T06:51:14;12.60;99.90
20068;DHT22;10194;50.824;7.134;2023-04-15T06:53:39;13.00;99.90
20068;DHT22;10194;50.824;7.134;2023-04-15T06:56:09;13.20;99.90
20068;DHT22;10194;50.824;7.134;2023-04-15T06:58:35;13.30;99.90
20068;DHT22;10194;50.824;7.134;2023-04-15T07:01:01;13.50;99.90
20068;DHT22;10194;50.824;7.134;2023-04-15T07:03:27;13.80;99.90
20068;DHT22;10194;50.824;7.134;2023-04-15T07:05:53;13.90;99.90
20068;DHT22;10194;50.824;7.134;2023-04-15T07:08:19;13.90;99.90
20068;DHT22;10194;50.824;7.134;2023-04-15T07:10:48;13.70;99.90
20068;DHT22;10194;50.824;7.134;2023-04-15T07:13:14;13.80;99.90
20068;DHT22;10194;50.824;7.134;2023-04-15T07:15:40;13.70;99.90
20068;DHT22;10194;50.824;7.134;2023-04-15T07:18:06;13.50;99.90
20068;DHT22;10194;50.824;7.134;2023-04-15T07:20:31;13.50;99.90
20068;DHT22;10194;50.824;7.134;2023-04-15T07:22:57;13.50;99.90
20068;DHT22;10194;50.824;7.134;2023-04-15T07:25:23;13.30;99.90
20068;DHT22;10194;50.824;7.134;2023-04-15T07:27:49;13.40;99.90
20068;DHT22;10194;50.824;7.134;2023-04-15T07:30:15;13.90;99.90
20068;DHT22;10194;50.824;7.134;2023-04-15T07:32:41;13.90;99.90
20068;DHT22;10194;50.824;7.134;2023-04-15T07:35:07;13.60;99.90
20068;DHT22;10194;50.824;7.134;2023-04-15T07:37:34;13.40;99.90
20068;DHT22;10194;50.824;7.134;2023-04-15T07:40:00;13.20;99.90
20068;DHT22;10194;50.824;7.134;2023-04-15T07:42:26;12.80;99.90
20068;DHT22;10194;50.824;7.134;2023-04-15T07:44:53;12.60;99.90
20068;DHT22;10194;50.824;7.134;2023-04-15T07:47:19;12.80;99.90
20068;DHT22;10194;50.824;7.134;2023-04-15T07:49:45;12.70;99.90
20068;DHT22;10194;50.824;7.134;2023-04-15T07:52:11;12.90;99.90
20068;DHT22;10194;50.824;7.134;2023-04-15T07:54:37;12.70;99.90
20068;DHT22;10194;50.824;7.134;2023-04-15T07:57:04;12.70;99.90
20068;DHT22;10194;50.824;7.134;2023-04-15T07:59:29;12.50;99.90
20068;DHT22;10194;50.824;7.134;2023-04-15T08:01:57;12.70;99.90
20068;DHT22;10194;50.824;7.134;2023-04-15T08:04:24;12.50;99.90
20068;DHT22;10194;50.824;7.134;2023-04-15T08:06:49;12.50;99.90
20068;DHT22;10194;50.824;7.134;2023-04-15T08:09:16;12.60;99.90
20068;DHT22;10194;50.824;7.134;2023-04-15T08:11:42;12.80;99.90
20068;DHT22;10194;50.824;7.134;2023-04-15T08:14:08;12.80;99.90
20068;DHT22;10194;50.824;7.134;2023-04-15T08:16:34;12.90;99.90
20068;DHT22;10194;50.824;7.134;2023-04-15T08:19:00;12.80;99.90
20068;DHT22;10194;50.824;7.134;2023-04-15T08:21:25;12.90;99.90
20068;DHT22;10194;50.824;7.134;2023-04-15T08:23:52;12.90;99.90
20068;DHT22;10194;50.824;7.134;2023-04-15T08:26:19;12.80;99.90
20068;DHT22;10194;50.824;7.134;2023-04-15T08:28:46;12.90;99.90
20068;DHT22;10194;50.824;7.134;2023-04-15T08:31:15;13.00;99.90
20068;DHT22;10194;50.824;7.134;2023-04-15T08:33:42;12.80;99.90
20068;DHT22;10194;50.824;7.134;2023-04-15T08:36:08;12.70;99.90
20068;DHT22;10194;50.824;7.134;2023-04-15T08:38:34;12.60;99.90
20068;DHT22;10194;50.824;7.134;2023-04-15T08:41:05;12.70;99.90
20068;DHT22;10194;50.824;7.134;2023-04-15T08:43:34;12.70;99.90
20068;DHT22;10194;50.824;7.134;2023-04-15T08:46:00;12.50;99.90
20068;DHT22;10194;50.824;7.134;2023-04-15T08:48:28;12.70;99.90
20068;DHT22;10194;50.824;7.134;2023-04-15T08:50:54;12.60;99.90
20068;DHT22;10194;50.824;7.134;2023-04-15T08:53:21;12.60;99.90
20068;DHT22;10194;50.824;7.134;2023-04-15T08:55:51;12.60;99.90
20068;DHT22;10194;50.824;7.134;2023-04-15T08:58:18;12.70;99.90
20068;DHT22;10194;50.824;7.134;2023-04-15T09:00:44;13.10;99.90
20068;DHT22;10194;50.824;7.134;2023-04-15T09:03:10;13.00;99.90
20068;DHT22;10194;50.824;7.134;2023-04-15T09:05:36;13.00;99.90
20068;DHT22;10194;50.824;7.134;2023-04-15T09:08:03;12.70;99.90
20068;DHT22;10194;50.824;7.134;2023-04-15T09:10:31;12.80;99.90
20068;DHT22;10194;50.824;7.134;2023-04-15T09:12:58;12.90;99.90
20068;DHT22;10194;50.824;7.134;2023-04-15T09:15:27;13.20;99.90
20068;DHT22;10194;50.824;7.134;2023-04-15T09:17:54;13.50;99.90
20068;DHT22;10194;50.824;7.134;2023-04-15T09:20:21;13.40;99.90
20068;DHT22;10194;50.824;7.134;2023-04-15T09:22:48;13.50;99.90
20068;DHT22;10194;50.824;7.134;2023-04-15T09:27:51;13.40;99.40
20068;DHT22;10194;50.824;7.134;2023-04-15T09:30:17;13.50;98.80
20068;DHT22;10194;50.824;7.134;2023-04-15T09:32:59;13.70;97.00
20068;DHT22;10194;50.824;7.134;2023-04-15T09:35:35;13.70;96.40
20068;DHT22;10194;50.824;7.134;2023-04-15T09:38:08;13.70;96.10
20068;DHT22;10194;50.824;7.134;2023-04-15T09:43:08;13.60;97.70
20068;DHT22;10194;50.824;7.134;2023-04-15T09:45:37;14.00;97.90
20068;DHT22;10194;50.824;7.134;2023-04-15T09:48:26;14.20;99.80
20068;DHT22;10194;50.824;7.134;2023-04-15T09:50:52;14.50;97.70
20068;DHT22;10194;50.824;7.134;2023-04-15T09:53:20;13.70;96.50
20068;DHT22;10194;50.824;7.134;2023-04-15T09:55:51;13.30;99.50
20068;DHT22;10194;50.824;7.134;2023-04-15T09:58:27;13.20;99.90
20068;DHT22;10194;50.824;7.134;2023-04-15T10:00:58;13.60;99.10
20068;DHT22;10194;50.824;7.134;2023-04-15T10:03:33;13.70;99.90
20068;DHT22;10194;50.824;7.134;2023-04-15T10:06:01;13.80;98.90
20068;DHT22;10194;50.824;7.134;2023-04-15T10:08:30;13.90;98.50
20068;DHT22;10194;50.824;7.134;2023-04-15T10:10:57;14.00;99.70
20068;DHT22;10194;50.824;7.134;2023-04-15T10:13:25;13.90;97.10
20068;DHT22;10194;50.824;7.134;2023-04-15T10:18:42;14.00;99.70
20068;DHT22;10194;50.824;7.134;2023-04-15T10:21:09;14.20;98.70
20068;DHT22;10194;50.824;7.134;2023-04-15T10:23:35;14.10;99.50
20068;DHT22;10194;50.824;7.134;2023-04-15T10:26:03;14.00;97.80
20068;DHT22;10194;50.824;7.134;2023-04-15T10:28:29;13.70;98.30
20068;DHT22;10194;50.824;7.134;2023-04-15T10:30:56;13.80;98.50
20068;DHT22;10194;50.824;7.134;2023-04-15T10:33:23;14.20;99.90
20068;DHT22;10194;50.824;7.134;2023-04-15T10:35:50;14.30;99.90
20068;DHT22;10194;50.824;7.134;2023-04-15T10:43:48;14.30;99.70
20068;DHT22;10194;50.824;7.134;2023-04-15T10:46:34;14.60;99.70
20068;DHT22;10194;50.824;7.134;2023-04-15T10:49:26;14.80;99.90
20068;DHT22;10194;50.824;7.134;2023-04-15T10:51:58;13.90;99.90
20068;DHT22;10194;50.824;7.134;2023-04-15T11:00:17;14.30;99.90
20068;DHT22;10194;50.824;7.134;2023-04-15T11:03:13;14.50;99.90
20068;DHT22;10194;50.824;7.134;2023-04-15T11:08:11;13.80;99.90
20068;DHT22;10194;50.824;7.134;2023-04-15T11:15:37;13.80;99.90
20068;DHT22;10194;50.824;7.134;2023-04-15T11:18:10;13.80;99.90
20068;DHT22;10194;50.824;7.134;2023-04-15T11:20:38;13.90;99.90
20068;DHT22;10194;50.824;7.134;2023-04-15T11:23:05;13.80;99.90
20068;DHT22;10194;50.824;7.134;2023-04-15T11:25:33;13.60;99.90
20068;DHT22;10194;50.824;7.134;2023-04-15T11:28:00;13.80;99.90
20068;DHT22;10194;50.824;7.134;2023-04-15T11:30:29;13.70;99.90
20068;DHT22;10194;50.824;7.134;2023-04-15T11:32:59;13.60;99.90
20068;DHT22;10194;50.824;7.134;2023-04-15T11:35:26;13.50;99.90
20068;DHT22;10194;50.824;7.134;2023-04-15T11:37:53;13.20;99.90
20068;DHT22;10194;50.824;7.134;2023-04-15T11:40:28;13.10;99.90
20068;DHT22;10194;50.824;7.134;2023-04-15T11:45:53;13.30;99.90
20068;DHT22;10194;50.824;7.134;2023-04-15T11:48:29;13.10;99.90
20068;DHT22;10194;50.824;7.134;2023-04-15T11:51:04;13.30;99.90
20068;DHT22;10194;50.824;7.134;2023-04-15T11:53:50;13.30;99.90
20068;DHT22;10194;50.824;7.134;2023-04-15T11:56:21;13.40;99.90
20068;DHT22;10194;50.824;7.134;2023-04-15T11:58:55;13.50;99.90
20068;DHT22;10194;50.824;7.134;2023-04-15T12:01:38;13.50;99.90
20068;DHT22;10194;50.824;7.134;2023-04-15T12:04:16;13.20;99.90
20068;DHT22;10194;50.824;7.134;2023-04-15T12:06:48;13.20;99.90
20068;DHT22;10194;50.824;7.134;2023-04-15T12:09:17;13.00;99.90
20068;DHT22;10194;50.824;7.134;2023-04-15T12:11:46;13.10;99.90
20068;DHT22;10194;50.824;7.134;2023-04-15T12:14:27;12.80;99.90
20068;DHT22;10194;50.824;7.134;2023-04-15T12:16:58;12.80;99.90
20068;DHT22;10194;50.824;7.134;2023-04-15T12:19:45;12.60;99.90
20068;DHT22;10194;50.824;7.134;2023-04-15T12:22:12;12.60;99.90
20068;DHT22;10194;50.824;7.134;2023-04-15T12:24:41;12.60;99.90
20068;DHT22;10194;50.824;7.134;2023-04-15T12:27:14;12.50;99.90
20068;DHT22;10194;50.824;7.134;2023-04-15T12:29:41;12.40;99.90
20068;DHT22;10194;50.824;7.134;2023-04-15T12:32:13;12.20;99.90
20068;DHT22;10194;50.824;7.134;2023-04-15T12:34:50;12.30;99.90
20068;DHT22;10194;50.824;7.134;2023-04-15T12:37:20;12.20;99.90
20068;DHT22;10194;50.824;7.134;2023-04-15T12:39:47;12.20;99.90
20068;DHT22;10194;50.824;7.134;2023-04-15T12:42:14;12.20;99.90
20068;DHT22;10194;50.824;7.134;2023-04-15T12:44:41;12.00;99.90
20068;DHT22;10194;50.824;7.134;2023-04-15T12:47:08;11.80;99.90
20068;DHT22;10194;50.824;7.134;2023-04-15T12:49:35;11.80;99.90
20068;DHT22;10194;50.824;7.134;2023-04-15T12:52:01;11.90;99.90
20068;DHT22;10194;50.824;7.134;2023-04-15T12:54:28;11.90;99.90
20068;DHT22;10194;50.824;7.134;2023-04-15T12:56:55;11.80;99.90
20068;DHT22;10194;50.824;7.134;2023-04-15T12:59:21;11.70;99.90
20068;DHT22;10194;50.824;7.134;2023-04-15T13:01:49;11.60;99.90
20068;DHT22;10194;50.824;7.134;2023-04-15T13:04:15;11.70;99.90
20068;DHT22;10194;50.824;7.134;2023-04-15T13:06:41;11.80;99.90
20068;DHT22;10194;50.824;7.134;2023-04-15T13:09:07;11.70;99.90
20068;DHT22;10194;50.824;7.134;2023-04-15T13:11:34;11.70;99.90
20068;DHT22;10194;50.824;7.134;2023-04-15T13:14:02;11.70;99.90
20068;DHT22;10194;50.824;7.134;2023-04-15T13:16:29;11.80;99.90
20068;DHT22;10194;50.824;7.134;2023-04-15T13:18:57;11.70;99.90
20068;DHT22;10194;50.824;7.134;2023-04-15T13:21:23;11.60;99.90
20068;DHT22;10194;50.824;7.134;2023-04-15T13:23:49;11.60;99.90
20068;DHT22;10194;50.824;7.134;2023-04-15T13:26:16;11.60;99.90
20068;DHT22;10194;50.824;7.134;2023-04-15T13:28:43;11.50;99.90
20068;DHT22;10194;50.824;7.134;2023-04-15T13:31:09;11.60;99.90
20068;DHT22;10194;50.824;7.134;2023-04-15T13:33:34;11.40;99.90
20068;DHT22;10194;50.824;7.134;2023-04-15T13:36:01;11.40;99.90
20068;DHT22;10194;50.824;7.134;2023-04-15T13:38:26;11.40;99.90
20068;DHT22;10194;50.824;7.134;2023-04-15T13:40:52;11.50;99.90
20068;DHT22;10194;50.824;7.134;2023-04-15T13:43:18;11.50;99.90
20068;DHT22;10194;50.824;7.134;2023-04-15T13:45:45;11.60;99.90
20068;DHT22;10194;50.824;7.134;2023-04-15T13:48:10;11.60;99.90
20068;DHT22;10194;50.824;7.134;2023-04-15T13:50:36;11.50;99.90
20068;DHT22;10194;50.824;7.134;2023-04-15T13:53:02;11.30;99.90
20068;DHT22;10194;50.824;7.134;2023-04-15T13:55:28;11.20;99.90
20068;DHT22;10194;50.824;7.134;2023-04-15T13:57:53;11.20;99.90
20068;DHT22;10194;50.824;7.134;2023-04-15T14:00:19;11.20;99.90
20068;DHT22;10194;50.824;7.134;2023-04-15T14:02:45;11.10;99.90
20068;DHT22;10194;50.824;7.134;2023-04-15T14:05:11;11.10;99.90
20068;DHT22;10194;50.824;7.134;2023-04-15T14:07:37;11.00;99.90
20068;DHT22;10194;50.824;7.134;2023-04-15T14:10:03;11.00;99.90
20068;DHT22;10194;50.824;7.134;2023-04-15T14:12:29;11.10;99.90
20068;DHT22;10194;50.824;7.134;2023-04-15T14:14:55;11.10;99.90
20068;DHT22;10194;50.824;7.134;2023-04-15T14:17:20;11.20;99.90
20068;DHT22;10194;50.824;7.134;2023-04-15T14:19:46;11.20;99.90
20068;DHT22;10194;50.824;7.134;2023-04-15T14:22:12;11.30;99.90
20068;DHT22;10194;50.824;7.134;2023-04-15T14:24:38;11.00;99.90
20068;DHT22;10194;50.824;7.134;2023-04-15T14:27:03;11.00;99.90
20068;DHT22;10194;50.824;7.134;2023-04-15T14:29:29;11.00;99.90
20068;DHT22;10194;50.824;7.134;2023-04-15T14:31:55;11.00;99.90
20068;DHT22;10194;50.824;7.134;2023-04-15T14:34:23;11.10;99.90
20068;DHT22;10194;50.824;7.134;2023-04-15T14:36:50;11.10;99.90
20068;DHT22;10194;50.824;7.134;2023-04-15T14:39:18;11.10;99.90
20068;DHT22;10194;50.824;7.134;2023-04-15T14:41:44;11.10;99.90
20068;DHT22;10194;50.824;7.134;2023-04-15T14:44:10;11.20;99.90
20068;DHT22;10194;50.824;7.134;2023-04-15T14:46:37;11.30;99.90
20068;DHT22;10194;50.824;7.134;2023-04-15T14:49:03;11.40;99.90
20068;DHT22;10194;50.824;7.134;2023-04-15T14:51:30;11.40;99.90
20068;DHT22;10194;50.824;7.134;2023-04-15T14:53:56;11.50;99.90
20068;DHT22;10194;50.824;7.134;2023-04-15T14:56:22;11.50;99.90
20068;DHT22;10194;50.824;7.134;2023-04-15T14:58:47;11.20;99.90
20068;DHT22;10194;50.824;7.134;2023-04-15T15:01:13;11.00;99.90
20068;DHT22;10194;50.824;7.134;2023-04-15T15:03:39;11.00;99.90
20068;DHT22;10194;50.824;7.134;2023-04-15T15:06:05;11.00;99.90
20068;DHT22;10194;50.824;7.134;2023-04-15T15:08:31;10.90;99.90
20068;DHT22;10194;50.824;7.134;2023-04-15T15:10:57;10.90;99.90
20068;DHT22;10194;50.824;7.134;2023-04-15T15:13:23;10.90;99.90
20068;DHT22;10194;50.824;7.134;2023-04-15T15:15:49;10.80;99.90
20068;DHT22;10194;50.824;7.134;2023-04-15T15:18:15;10.60;99.90
20068;DHT22;10194;50.824;7.134;2023-04-15T15:20:43;10.70;99.90
20068;DHT22;10194;50.824;7.134;2023-04-15T15:23:09;10.60;99.90
20068;DHT22;10194;50.824;7.134;2023-04-15T15:25:35;10.50;99.90
20068;DHT22;10194;50.824;7.134;2023-04-15T15:28:00;10.40;99.90
20068;DHT22;10194;50.824;7.134;2023-04-15T15:30:26;10.30;99.90
20068;DHT22;10194;50.824;7.134;2023-04-15T15:32:52;10.30;99.90
20068;DHT22;10194;50.824;7.134;2023-04-15T15:35:18;10.30;99.90
20068;DHT22;10194;50.824;7.134;2023-04-15T15:37:44;10.40;99.90
20068;DHT22;10194;50.824;7.134;2023-04-15T15:40:10;10.30;99.90
20068;DHT22;10194;50.824;7.134;2023-04-15T15:42:36;10.30;99.90
20068;DHT22;10194;50.824;7.134;2023-04-15T15:45:03;10.40;99.90
20068;DHT22;10194;50.824;7.134;2023-04-15T15:47:29;10.40;99.90
20068;DHT22;10194;50.824;7.134;2023-04-15T15:49:55;10.40;99.90
20068;DHT22;10194;50.824;7.134;2023-04-15T15:52:20;10.40;99.90
20068;DHT22;10194;50.824;7.134;2023-04-15T15:54:46;10.40;99.90
20068;DHT22;10194;50.824;7.134;2023-04-15T15:57:12;10.30;99.90
20068;DHT22;10194;50.824;7.134;2023-04-15T15:59:39;10.30;99.90
20068;DHT22;10194;50.824;7.134;2023-04-15T16:02:09;10.20;99.90
20068;DHT22;10194;50.824;7.134;2023-04-15T16:04:37;10.20;99.90
20068;DHT22;10194;50.824;7.134;2023-04-15T16:07:03;10.10;99.90